Time;durP1;ratioP1;P1;durP2;ratioP2;P2;SDS_P1;SDS_P2;PMS_P1;PMS_P2;Temp;Humidity;BMP_temperature;BMP_pressure;BME280_temperature;BME280_humidity;BME280_pressure;Samples;Min_cycle;Max_cycle;Signal;HPM_P1;HPM_P2
2022/07/06 00:01:46;;;;;;;5.72;0.70;;;;;;;;;;5099392;28;20114;-77
2022/07/06 00:04:12;;;;;;;3.65;0.50;;;;;;;;;;5110221;28;20595;-77
2022/07/06 00:06:38;;;;;;;2.58;0.50;;;;;;;;;;5099199;28;20597;-76
2022/07/06 00:09:04;;;;;;;2.78;0.85;;;;;;;;;;5102908;28;20023;-77
2022/07/06 00:11:30;;;;;;;2.80;0.70;;;;;;;;;;5107615;28;20042;-76
2022/07/06 00:13:57;;;;;;;2.63;0.50;;;;;;;;;;5110646;28;20039;-77
2022/07/06 00:16:23;;;;;;;2.05;0.52;;;;;;;;;;5098205;28;20038;-76
2022/07/06 00:18:49;;;;;;;1.60;0.40;;;;;;;;;;5098671;28;20023;-77
2022/07/06 00:21:16;;;;;;;2.70;0.77;;;;;;;;;;5095675;28;20114;-77
2022/07/06 00:23:42;;;;;;;3.53;0.60;;;;;;;;;;5093667;28;20042;-77
2022/07/06 00:26:08;;;;;;;1.52;0.50;;;;;;;;;;5093045;28;20036;-76
2022/07/06 00:28:34;;;;;;;1.77;0.43;;;;;;;;;;5099282;28;20461;-76
2022/07/06 00:31:01;;;;;;;3.10;0.75;;;;;;;;;;5102954;28;20039;-76
2022/07/06 00:33:27;;;;;;;3.67;0.50;;;;;;;;;;5102377;28;20535;-76
2022/07/06 00:35:53;;;;;;;2.97;0.57;;;;;;;;;;5100240;28;20107;-77
2022/07/06 00:38:19;;;;;;;4.88;0.93;;;;;;;;;;5107026;28;20103;-76
2022/07/06 00:40:45;;;;;;;5.53;0.80;;;;;;;;;;5097535;28;20036;-77
2022/07/06 00:43:11;;;;;;;4.60;0.77;;;;;;;;;;5106754;28;20062;-76
2022/07/06 00:45:37;;;;;;;3.42;0.50;;;;;;;;;;5099121;28;20525;-76
2022/07/06 00:48:03;;;;;;;3.33;0.70;;;;;;;;;;5102689;28;20763;-77
2022/07/06 00:50:29;;;;;;;2.80;0.70;;;;;;;;;;5098077;28;20128;-77
2022/07/06 00:52:56;;;;;;;2.50;0.75;;;;;;;;;;5099461;28;20065;-76
2022/07/06 00:55:24;;;;;;;3.55;1.00;;;;;;;;;;5106164;28;20138;-77
2022/07/06 00:57:50;;;;;;;4.68;1.20;;;;;;;;;;5097867;28;20028;-76
2022/07/06 01:00:18;;;;;;;6.25;1.27;;;;;;;;;;5104722;28;20038;-77
2022/07/06 01:02:44;;;;;;;4.80;1.08;;;;;;;;;;5103894;28;20032;-77
2022/07/06 01:05:11;;;;;;;3.95;0.90;;;;;;;;;;5101696;28;20020;-77
2022/07/06 01:07:38;;;;;;;5.93;1.30;;;;;;;;;;5091846;28;20526;-76
2022/07/06 01:10:05;;;;;;;6.53;1.48;;;;;;;;;;5101619;28;20069;-77
2022/07/06 01:12:31;;;;;;;5.65;1.23;;;;;;;;;;5109491;28;20031;-77
2022/07/06 01:14:58;;;;;;;3.80;1.10;;;;;;;;;;5093230;28;20078;-76
2022/07/06 01:17:24;;;;;;;4.97;1.08;;;;;;;;;;5101561;28;20065;-77
2022/07/06 01:19:50;;;;;;;4.13;1.13;;;;;;;;;;5102332;28;20047;-77
2022/07/06 01:22:16;;;;;;;5.55;1.45;;;;;;;;;;5092542;28;20047;-76
2022/07/06 01:24:42;;;;;;;5.47;1.63;;;;;;;;;;5098108;28;20034;-77
2022/07/06 01:27:08;;;;;;;7.30;1.40;;;;;;;;;;5093073;28;20756;-77
2022/07/06 01:29:35;;;;;;;5.80;0.90;;;;;;;;;;5105829;28;20028;-76
2022/07/06 01:32:02;;;;;;;2.95;0.60;;;;;;;;;;5105054;28;20045;-77
2022/07/06 01:34:28;;;;;;;3.33;0.60;;;;;;;;;;5089499;28;20028;-77
2022/07/06 01:36:54;;;;;;;4.72;0.90;;;;;;;;;;5101040;28;20053;-76
2022/07/06 01:39:21;;;;;;;3.58;1.20;;;;;;;;;;5089379;28;20020;-77
2022/07/06 01:41:47;;;;;;;5.82;1.20;;;;;;;;;;5099161;28;20035;-76
2022/07/06 01:44:13;;;;;;;5.40;1.20;;;;;;;;;;5089223;28;20118;-77
2022/07/06 01:46:39;;;;;;;6.18;1.40;;;;;;;;;;5097317;28;20085;-77
2022/07/06 01:49:05;;;;;;;5.32;1.08;;;;;;;;;;5100358;28;20054;-77
2022/07/06 01:51:31;;;;;;;3.85;0.85;;;;;;;;;;5092835;28;20040;-76
2022/07/06 01:53:57;;;;;;;3.25;1.13;;;;;;;;;;5094295;28;20032;-77
2022/07/06 01:56:23;;;;;;;4.07;1.20;;;;;;;;;;5095483;28;20588;-77
2022/07/06 01:58:50;;;;;;;7.72;1.48;;;;;;;;;;5097664;28;20032;-76
2022/07/06 02:01:17;;;;;;;6.53;1.20;;;;;;;;;;5098946;28;20050;-77
2022/07/06 02:03:43;;;;;;;5.10;1.15;;;;;;;;;;5104473;28;20031;-77
2022/07/06 02:06:10;;;;;;;6.55;1.10;;;;;;;;;;5102267;28;20047;-76
2022/07/06 02:08:36;;;;;;;3.97;0.90;;;;;;;;;;5102555;28;20482;-77
2022/07/06 02:11:03;;;;;;;4.97;1.00;;;;;;;;;;5098623;28;20043;-76
2022/07/06 02:13:29;;;;;;;4.88;1.00;;;;;;;;;;5096324;28;20043;-77
2022/07/06 02:15:55;;;;;;;4.25;1.10;;;;;;;;;;5103013;28;20531;-77
2022/07/06 02:18:21;;;;;;;5.43;1.08;;;;;;;;;;5096712;28;20068;-77
2022/07/06 02:20:47;;;;;;;3.75;0.93;;;;;;;;;;5106816;28;20115;-77
2022/07/06 02:23:14;;;;;;;3.80;0.80;;;;;;;;;;5103338;28;20032;-76
2022/07/06 02:25:40;;;;;;;3.03;0.55;;;;;;;;;;5093017;28;20047;-77
2022/07/06 02:28:06;;;;;;;6.10;1.65;;;;;;;;;;5092265;28;20049;-77
2022/07/06 02:30:32;;;;;;;2.65;0.80;;;;;;;;;;5093418;28;20039;-76
2022/07/06 02:32:58;;;;;;;3.63;0.90;;;;;;;;;;5104348;28;20091;-77
2022/07/06 02:35:24;;;;;;;3.38;0.77;;;;;;;;;;5105276;28;20430;-77
2022/07/06 02:37:50;;;;;;;2.63;0.82;;;;;;;;;;5095579;28;20462;-77
2022/07/06 02:40:16;;;;;;;3.38;1.00;;;;;;;;;;5096487;28;20032;-77
2022/07/06 02:42:42;;;;;;;4.85;1.08;;;;;;;;;;5104378;28;20107;-77
2022/07/06 02:45:08;;;;;;;3.70;1.13;;;;;;;;;;5101036;28;20486;-77
2022/07/06 02:47:34;;;;;;;6.18;1.00;;;;;;;;;;5100738;28;20111;-77
2022/07/06 02:50:00;;;;;;;5.03;1.08;;;;;;;;;;5099929;28;20128;-76
2022/07/06 02:52:27;;;;;;;4.80;0.90;;;;;;;;;;5108560;28;20028;-77
2022/07/06 02:54:53;;;;;;;3.60;1.00;;;;;;;;;;5100757;28;20027;-77
2022/07/06 02:57:19;;;;;;;3.72;1.02;;;;;;;;;;5096783;28;20036;-76
2022/07/06 02:59:45;;;;;;;3.72;1.10;;;;;;;;;;5100385;28;20470;-76
2022/07/06 03:02:12;;;;;;;5.32;0.90;;;;;;;;;;5088049;28;20407;-76
2022/07/06 03:04:38;;;;;;;4.75;0.90;;;;;;;;;;5095923;28;20036;-77
2022/07/06 03:07:04;;;;;;;3.13;0.85;;;;;;;;;;5100604;28;20032;-76
2022/07/06 03:09:30;;;;;;;2.65;0.80;;;;;;;;;;5092017;28;20024;-76
2022/07/06 03:11:56;;;;;;;6.70;0.90;;;;;;;;;;5091192;28;20040;-77
2022/07/06 03:14:22;;;;;;;3.88;0.90;;;;;;;;;;5098713;28;20506;-76
2022/07/06 03:16:48;;;;;;;4.57;0.70;;;;;;;;;;5093112;28;20104;-77
2022/07/06 03:19:14;;;;;;;3.00;0.88;;;;;;;;;;5102960;28;20024;-76
2022/07/06 03:21:40;;;;;;;2.40;0.80;;;;;;;;;;5094839;28;20348;-76
2022/07/06 03:24:06;;;;;;;6.18;0.90;;;;;;;;;;5097724;28;20028;-77
2022/07/06 03:26:32;;;;;;;1.85;0.80;;;;;;;;;;5099148;28;20039;-77
2022/07/06 03:28:58;;;;;;;4.38;0.80;;;;;;;;;;5100098;28;20035;-77
2022/07/06 03:31:24;;;;;;;4.28;1.00;;;;;;;;;;5097282;28;20082;-76
2022/07/06 03:33:50;;;;;;;3.40;1.00;;;;;;;;;;5088039;28;20028;-76
2022/07/06 03:36:16;;;;;;;3.78;1.05;;;;;;;;;;5100410;28;20031;-76
2022/07/06 03:38:42;;;;;;;5.47;0.90;;;;;;;;;;5104859;28;20092;-76
2022/07/06 03:41:08;;;;;;;6.28;1.23;;;;;;;;;;5099598;28;20044;-76
2022/07/06 03:43:34;;;;;;;4.80;1.15;;;;;;;;;;5098708;28;20079;-76
2022/07/06 03:46:01;;;;;;;4.18;1.13;;;;;;;;;;5107788;28;20043;-77
2022/07/06 03:48:27;;;;;;;7.10;1.25;;;;;;;;;;5105662;28;20616;-77
2022/07/06 03:50:53;;;;;;;8.10;2.13;;;;;;;;;;5099740;28;20036;-76
2022/07/06 03:53:19;;;;;;;7.40;1.73;;;;;;;;;;5091095;28;20028;-76
2022/07/06 03:56:27;;;;;;;6.45;1.73;;;;;;;;;;5088033;28;20524;-76
2022/07/06 03:58:31;;;;;;;8.30;2.05;;;;;;;;;;5097964;28;20131;-76
2022/07/06 04:00:57;;;;;;;10.07;1.67;;;;;;;;;;5097996;28;20139;-77
2022/07/06 04:03:23;;;;;;;8.45;2.20;;;;;;;;;;5100466;28;20028;-76
2022/07/06 04:05:49;;;;;;;7.00;1.60;;;;;;;;;;5101922;28;20810;-77
2022/07/06 04:08:15;;;;;;;6.68;1.40;;;;;;;;;;5092587;28;20030;-76
2022/07/06 04:10:41;;;;;;;6.90;1.38;;;;;;;;;;5101598;28;20040;-77
2022/07/06 04:13:07;;;;;;;6.88;1.38;;;;;;;;;;5097648;28;20814;-77
2022/07/06 04:15:33;;;;;;;7.93;2.10;;;;;;;;;;5091468;28;20036;-77
2022/07/06 04:17:59;;;;;;;8.45;2.05;;;;;;;;;;5089815;28;20024;-76
2022/07/06 04:20:25;;;;;;;6.22;1.55;;;;;;;;;;5091237;28;20387;-76
2022/07/06 04:22:52;;;;;;;11.52;1.65;;;;;;;;;;5099883;28;20111;-77
2022/07/06 04:25:18;;;;;;;9.38;1.13;;;;;;;;;;5099430;28;20036;-77
2022/07/06 04:27:44;;;;;;;3.53;0.82;;;;;;;;;;5096241;28;20031;-76
2022/07/06 04:30:10;;;;;;;3.92;1.10;;;;;;;;;;5097352;28;20124;-77
2022/07/06 04:32:37;;;;;;;5.30;1.27;;;;;;;;;;5099592;28;20539;-77
2022/07/06 04:35:03;;;;;;;4.88;1.38;;;;;;;;;;5104254;28;20031;-77
2022/07/06 04:37:29;;;;;;;5.90;1.17;;;;;;;;;;5097498;28;20020;-77
2022/07/06 04:39:55;;;;;;;4.82;1.10;;;;;;;;;;5096263;28;20085;-77
2022/07/06 04:42:22;;;;;;;5.78;1.60;;;;;;;;;;5102122;28;20036;-76
2022/07/06 04:44:48;;;;;;;5.85;1.25;;;;;;;;;;5107172;28;20060;-76
2022/07/06 04:47:14;;;;;;;8.32;1.30;;;;;;;;;;5100134;28;20054;-76
2022/07/06 04:49:40;;;;;;;5.90;1.50;;;;;;;;;;5099507;28;20028;-76
2022/07/06 04:52:07;;;;;;;3.53;1.20;;;;;;;;;;5101860;28;20027;-77
2022/07/06 04:54:33;;;;;;;7.47;1.63;;;;;;;;;;5104417;28;20668;-77
2022/07/06 04:56:59;;;;;;;5.97;1.40;;;;;;;;;;5091124;28;20039;-76
2022/07/06 04:59:26;;;;;;;12.98;2.70;;;;;;;;;;5092352;28;20471;-77
2022/07/06 05:01:52;;;;;;;6.80;2.20;;;;;;;;;;5106750;28;20059;-76
2022/07/06 05:04:20;;;;;;;11.77;2.72;;;;;;;;;;5097155;28;20833;-77
2022/07/06 05:06:47;;;;;;;9.80;2.45;;;;;;;;;;5109753;28;20036;-77
2022/07/06 05:09:13;;;;;;;8.63;1.67;;;;;;;;;;5102382;28;20035;-76
2022/07/06 05:11:39;;;;;;;7.80;1.70;;;;;;;;;;5102406;28;20036;-76
2022/07/06 05:14:06;;;;;;;8.93;1.73;;;;;;;;;;5099892;28;20039;-77
2022/07/06 05:16:32;;;;;;;5.90;1.85;;;;;;;;;;5101943;28;20077;-77
2022/07/06 05:18:58;;;;;;;4.63;1.00;;;;;;;;;;5092398;28;20047;-77
2022/07/06 05:21:24;;;;;;;6.07;2.25;;;;;;;;;;5094627;28;20070;-77
2022/07/06 05:23:51;;;;;;;6.18;1.92;;;;;;;;;;5096050;28;20032;-77
2022/07/06 05:26:17;;;;;;;4.45;1.13;;;;;;;;;;5096046;28;20614;-77
2022/07/06 05:28:43;;;;;;;5.00;1.92;;;;;;;;;;5098184;28;20071;-76
2022/07/06 05:31:09;;;;;;;7.80;2.78;;;;;;;;;;5109055;28;20036;-77
2022/07/06 05:33:35;;;;;;;5.68;1.85;;;;;;;;;;5105470;28;20040;-77
2022/07/06 05:36:01;;;;;;;4.07;1.63;;;;;;;;;;5099591;28;20028;-76
2022/07/06 05:38:27;;;;;;;4.20;0.88;;;;;;;;;;5103216;28;20692;-77
2022/07/06 05:40:53;;;;;;;6.22;1.08;;;;;;;;;;5099776;28;20073;-77
2022/07/06 05:43:19;;;;;;;4.97;1.00;;;;;;;;;;5099559;28;20126;-77
2022/07/06 05:45:45;;;;;;;5.85;1.25;;;;;;;;;;5095619;28;20111;-77
2022/07/06 05:50:56;;;;;;;5.22;1.60;;;;;;;;;;5098291;28;20532;-77
2022/07/06 05:53:22;;;;;;;6.40;1.33;;;;;;;;;;5095567;28;20050;-77
2022/07/06 05:55:48;;;;;;;4.80;1.23;;;;;;;;;;5093373;28;20464;-77
2022/07/06 05:58:15;;;;;;;4.35;1.20;;;;;;;;;;5093293;28;20032;-77
2022/07/06 06:00:41;;;;;;;5.78;0.93;;;;;;;;;;5096094;28;20343;-77
2022/07/06 06:03:07;;;;;;;6.05;1.05;;;;;;;;;;5097452;28;20028;-77
2022/07/06 06:05:33;;;;;;;5.18;0.90;;;;;;;;;;5108384;28;20548;-77
2022/07/06 06:07:59;;;;;;;4.15;1.10;;;;;;;;;;5098850;28;20081;-77
2022/07/06 06:10:25;;;;;;;4.25;1.20;;;;;;;;;;5097079;28;20032;-78
2022/07/06 06:12:51;;;;;;;6.18;0.85;;;;;;;;;;5092666;28;20521;-77
2022/07/06 06:15:18;;;;;;;5.70;1.00;;;;;;;;;;5089529;28;20043;-77
2022/07/06 06:17:44;;;;;;;3.55;0.73;;;;;;;;;;5096196;27;20028;-77
2022/07/06 06:20:11;;;;;;;4.07;1.00;;;;;;;;;;5095761;28;20868;-77
2022/07/06 06:22:51;;;;;;;2.60;0.82;;;;;;;;;;5094427;28;20066;-77
2022/07/06 06:25:18;;;;;;;1.65;0.80;;;;;;;;;;5090688;28;20043;-77
2022/07/06 06:27:44;;;;;;;4.20;0.80;;;;;;;;;;5103807;28;20027;-77
2022/07/06 06:30:10;;;;;;;4.15;1.15;;;;;;;;;;5096766;28;20066;-77
2022/07/06 06:32:36;;;;;;;10.55;0.95;;;;;;;;;;5096496;28;20059;-77
2022/07/06 06:35:02;;;;;;;6.75;1.08;;;;;;;;;;5100903;28;20064;-77
2022/07/06 06:37:29;;;;;;;4.40;0.90;;;;;;;;;;5096239;28;20135;-77
2022/07/06 06:39:55;;;;;;;5.85;1.23;;;;;;;;;;5097010;28;20451;-77
2022/07/06 06:42:21;;;;;;;7.60;1.45;;;;;;;;;;5093493;28;20054;-77
2022/07/06 06:44:47;;;;;;;4.70;1.73;;;;;;;;;;5095132;28;20048;-78
2022/07/06 06:47:13;;;;;;;7.15;1.30;;;;;;;;;;5095776;28;20050;-77
2022/07/06 06:49:39;;;;;;;4.60;1.00;;;;;;;;;;5092455;28;20024;-77
2022/07/06 06:52:05;;;;;;;4.65;1.15;;;;;;;;;;5101421;28;20046;-77
2022/07/06 06:54:31;;;;;;;6.40;1.35;;;;;;;;;;5095990;28;20651;-77
2022/07/06 06:56:57;;;;;;;7.10;1.50;;;;;;;;;;5100357;28;20034;-77
2022/07/06 06:59:24;;;;;;;4.65;0.80;;;;;;;;;;5102856;28;20023;-77
2022/07/06 07:01:50;;;;;;;2.78;0.80;;;;;;;;;;5090893;28;20119;-77
2022/07/06 07:04:16;;;;;;;3.70;1.00;;;;;;;;;;5098884;28;20106;-77
2022/07/06 07:06:42;;;;;;;8.65;1.33;;;;;;;;;;5102585;28;20142;-77
2022/07/06 07:09:08;;;;;;;5.82;1.05;;;;;;;;;;5097140;28;20576;-78
2022/07/06 07:11:34;;;;;;;5.57;0.90;;;;;;;;;;5097520;28;20043;-77
2022/07/06 07:14:00;;;;;;;4.05;1.08;;;;;;;;;;5096360;28;20031;-77
2022/07/06 07:16:26;;;;;;;4.88;0.90;;;;;;;;;;5101828;28;20046;-77
2022/07/06 07:18:53;;;;;;;8.00;0.98;;;;;;;;;;5098054;28;20144;-77
2022/07/06 07:21:19;;;;;;;8.88;1.20;;;;;;;;;;5096933;28;20459;-77
2022/07/06 07:23:45;;;;;;;5.65;1.02;;;;;;;;;;5099844;28;20032;-77
2022/07/06 07:26:11;;;;;;;9.30;1.23;;;;;;;;;;5098306;28;20402;-77
2022/07/06 07:28:37;;;;;;;3.35;0.95;;;;;;;;;;5097218;28;20055;-77
2022/07/06 07:31:04;;;;;;;5.45;0.90;;;;;;;;;;5095433;28;20040;-77
2022/07/06 07:33:30;;;;;;;5.10;1.20;;;;;;;;;;5095717;28;20045;-78
2022/07/06 07:35:56;;;;;;;5.65;1.40;;;;;;;;;;5100942;28;20032;-77
2022/07/06 07:38:22;;;;;;;5.28;1.17;;;;;;;;;;5096073;28;20065;-77
2022/07/06 07:40:48;;;;;;;3.83;0.90;;;;;;;;;;5091581;28;20760;-77
2022/07/06 07:43:14;;;;;;;11.48;1.20;;;;;;;;;;5101172;28;20051;-78
2022/07/06 07:45:40;;;;;;;7.35;1.10;;;;;;;;;;5102695;28;20073;-77
2022/07/06 07:48:07;;;;;;;6.68;1.20;;;;;;;;;;5089549;28;20114;-78
2022/07/06 07:50:34;;;;;;;7.72;1.00;;;;;;;;;;5097829;28;20032;-77
2022/07/06 07:53:00;;;;;;;4.50;0.90;;;;;;;;;;5098304;28;20054;-77
2022/07/06 07:55:26;;;;;;;4.90;0.93;;;;;;;;;;5100180;28;20032;-77
2022/07/06 07:57:52;;;;;;;3.90;0.80;;;;;;;;;;5102275;28;20078;-77
2022/07/06 08:00:21;;;;;;;7.32;1.00;;;;;;;;;;5094398;28;20055;-77
2022/07/06 08:02:47;;;;;;;2.97;0.95;;;;;;;;;;5093662;28;20459;-77
2022/07/06 08:05:15;;;;;;;7.28;1.00;;;;;;;;;;5094940;28;20024;-77
2022/07/06 08:07:41;;;;;;;4.07;1.00;;;;;;;;;;5097564;28;20763;-77
2022/07/06 08:10:07;;;;;;;3.83;0.95;;;;;;;;;;5105062;28;20024;-77
2022/07/06 08:12:33;;;;;;;14.15;1.13;;;;;;;;;;5103781;28;20744;-77
2022/07/06 08:15:00;;;;;;;3.53;0.90;;;;;;;;;;5095112;28;20038;-77
2022/07/06 08:17:26;;;;;;;5.85;0.88;;;;;;;;;;5100972;28;20425;-77
2022/07/06 08:19:52;;;;;;;3.90;0.70;;;;;;;;;;5093216;28;20805;-77
2022/07/06 08:22:18;;;;;;;6.95;1.05;;;;;;;;;;5102135;28;20044;-77
2022/07/06 08:24:44;;;;;;;7.75;1.60;;;;;;;;;;5104501;28;20024;-77
2022/07/06 08:27:10;;;;;;;4.78;1.52;;;;;;;;;;5100430;28;20071;-77
2022/07/06 08:29:36;;;;;;;7.35;1.23;;;;;;;;;;5097161;28;20082;-77
2022/07/06 08:32:02;;;;;;;6.80;1.02;;;;;;;;;;5101796;28;20797;-77
2022/07/06 08:34:28;;;;;;;7.90;1.75;;;;;;;;;;5099368;28;20470;-77
2022/07/06 08:36:54;;;;;;;3.45;1.38;;;;;;;;;;5100827;28;20084;-77
2022/07/06 08:39:20;;;;;;;5.90;1.45;;;;;;;;;;5096533;28;20067;-77
2022/07/06 08:41:48;;;;;;;8.23;1.20;;;;;;;;;;5096788;28;20067;-78
2022/07/06 08:44:17;;;;;;;5.40;1.45;;;;;;;;;;5101762;28;20058;-77
2022/07/06 08:46:44;;;;;;;8.73;1.20;;;;;;;;;;5099118;28;20090;-77
2022/07/06 08:49:13;;;;;;;11.65;1.48;;;;;;;;;;5103026;28;20426;-77
2022/07/06 08:51:40;;;;;;;5.85;1.13;;;;;;;;;;5105283;28;20073;-77
2022/07/06 08:54:07;;;;;;;4.82;1.25;;;;;;;;;;5097406;28;20024;-78
2022/07/06 08:56:34;;;;;;;8.70;1.02;;;;;;;;;;5097928;28;20111;-77
2022/07/06 08:59:00;;;;;;;4.97;1.10;;;;;;;;;;5100297;28;20023;-77
2022/07/06 09:01:27;;;;;;;4.07;1.00;;;;;;;;;;5096179;28;20036;-77
2022/07/06 09:03:54;;;;;;;5.38;1.20;;;;;;;;;;5097132;28;20486;-77
2022/07/06 09:06:24;;;;;;;3.55;0.85;;;;;;;;;;5092441;28;20036;-77
2022/07/06 09:08:52;;;;;;;3.97;0.90;;;;;;;;;;5096290;28;20032;-77
2022/07/06 09:11:18;;;;;;;4.03;1.10;;;;;;;;;;5101778;28;20040;-77
2022/07/06 09:13:44;;;;;;;3.40;0.93;;;;;;;;;;5100570;28;20042;-77
2022/07/06 09:16:12;;;;;;;4.00;0.90;;;;;;;;;;5099608;28;20039;-78
2022/07/06 09:18:42;;;;;;;11.05;1.23;;;;;;;;;;5105016;28;20050;-77
2022/07/06 09:21:08;;;;;;;7.68;1.17;;;;;;;;;;5102702;28;20664;-77
2022/07/06 09:23:34;;;;;;;7.03;1.02;;;;;;;;;;5096795;28;20024;-77
2022/07/06 09:26:04;;;;;;;5.63;0.90;;;;;;;;;;5098598;28;20032;-78
2022/07/06 09:28:43;;;;;;;6.40;1.00;;;;;;;;;;5094311;28;20035;-77
2022/07/06 09:31:10;;;;;;;8.45;1.10;;;;;;;;;;5101245;28;20050;-77
2022/07/06 09:33:36;;;;;;;6.13;1.02;;;;;;;;;;5095816;28;20097;-77
2022/07/06 09:36:02;;;;;;;4.18;0.90;;;;;;;;;;5096403;28;20101;-77
2022/07/06 09:38:28;;;;;;;5.68;1.30;;;;;;;;;;5099314;28;20079;-77
2022/07/06 09:40:55;;;;;;;4.45;0.85;;;;;;;;;;5099245;28;20053;-77
2022/07/06 09:43:22;;;;;;;2.72;0.95;;;;;;;;;;5095531;28;20082;-77
2022/07/06 09:45:52;;;;;;;5.57;1.33;;;;;;;;;;5102049;28;20081;-77
2022/07/06 09:48:26;;;;;;;4.43;0.80;;;;;;;;;;5097519;28;20043;-77
2022/07/06 09:50:53;;;;;;;6.63;0.70;;;;;;;;;;5102744;28;20604;-77
2022/07/06 09:53:20;;;;;;;7.03;1.10;;;;;;;;;;5097335;28;20107;-77
2022/07/06 09:55:47;;;;;;;5.65;1.10;;;;;;;;;;5096764;28;20467;-77
2022/07/06 09:58:13;;;;;;;7.30;1.00;;;;;;;;;;5096586;28;20452;-78
2022/07/06 10:00:39;;;;;;;5.00;0.82;;;;;;;;;;5097804;28;20481;-77
2022/07/06 10:03:06;;;;;;;4.03;0.70;;;;;;;;;;5091587;28;20031;-77
2022/07/06 10:05:32;;;;;;;3.97;1.00;;;;;;;;;;5096013;28;20063;-77
2022/07/06 10:08:00;;;;;;;5.88;1.20;;;;;;;;;;5103845;28;20028;-77
2022/07/06 10:10:29;;;;;;;3.63;0.80;;;;;;;;;;5094012;28;20447;-77
2022/07/06 10:12:58;;;;;;;6.70;0.80;;;;;;;;;;5096542;28;20031;-78
2022/07/06 10:15:26;;;;;;;4.63;1.30;;;;;;;;;;5095960;28;20643;-77
2022/07/06 10:17:52;;;;;;;3.42;1.10;;;;;;;;;;5099367;28;20032;-77
2022/07/06 10:20:21;;;;;;;4.07;0.80;;;;;;;;;;5100470;28;20031;-77
2022/07/06 10:22:48;;;;;;;3.65;0.70;;;;;;;;;;5103398;28;20077;-78
2022/07/06 10:25:18;;;;;;;2.88;0.90;;;;;;;;;;5096053;28;20452;-77
2022/07/06 10:27:45;;;;;;;1.98;0.70;;;;;;;;;;5098764;28;20027;-78
2022/07/06 10:30:11;;;;;;;4.72;0.80;;;;;;;;;;5095361;28;20064;-78
2022/07/06 10:32:39;;;;;;;4.28;1.00;;;;;;;;;;5098625;28;20661;-78
2022/07/06 10:35:06;;;;;;;6.88;0.80;;;;;;;;;;5095655;28;20020;-78
2022/07/06 10:37:33;;;;;;;3.78;0.98;;;;;;;;;;5096085;28;20031;-78
2022/07/06 10:42:58;;;;;;;4.53;0.60;;;;;;;;;;5093901;28;20046;-77
2022/07/06 10:45:30;;;;;;;2.08;0.70;;;;;;;;;;5094388;28;20051;-77
2022/07/06 10:48:08;;;;;;;4.03;0.75;;;;;;;;;;5100715;28;20474;-77
2022/07/06 10:50:35;;;;;;;6.03;1.23;;;;;;;;;;5099239;28;20056;-78
2022/07/06 10:53:01;;;;;;;2.88;0.80;;;;;;;;;;5101976;28;20028;-78
2022/07/06 10:55:30;;;;;;;3.58;0.70;;;;;;;;;;5098016;28;20032;-78
2022/07/06 10:57:56;;;;;;;5.40;0.82;;;;;;;;;;5094723;28;20019;-77
2022/07/06 11:00:22;;;;;;;3.05;0.85;;;;;;;;;;5100510;28;20043;-77
2022/07/06 11:02:48;;;;;;;4.05;0.98;;;;;;;;;;5097903;28;20870;-78
2022/07/06 11:05:33;;;;;;;1.98;0.60;;;;;;;;;;5101719;28;20075;-77
2022/07/06 11:08:02;;;;;;;3.00;0.60;;;;;;;;;;5092465;28;20540;-77
2022/07/06 11:10:28;;;;;;;2.30;0.70;;;;;;;;;;5094497;28;20077;-77
2022/07/06 11:13:00;;;;;;;2.05;0.60;;;;;;;;;;5097364;28;20028;-77
2022/07/06 11:15:45;;;;;;;3.17;0.80;;;;;;;;;;5089193;28;20035;-77
2022/07/06 11:18:12;;;;;;;2.35;0.70;;;;;;;;;;5100790;28;20123;-77
2022/07/06 11:20:38;;;;;;;4.45;1.00;;;;;;;;;;5098209;28;20059;-78
2022/07/06 11:23:04;;;;;;;11.93;0.80;;;;;;;;;;5094855;28;20070;-78
2022/07/06 11:25:30;;;;;;;4.63;0.95;;;;;;;;;;5097104;28;20085;-78
2022/07/06 11:27:57;;;;;;;2.40;0.65;;;;;;;;;;5092108;28;20035;-78
2022/07/06 11:30:23;;;;;;;3.95;0.82;;;;;;;;;;5100416;28;20032;-78
2022/07/06 11:32:49;;;;;;;4.07;0.95;;;;;;;;;;5097506;28;20105;-77
2022/07/06 11:35:22;;;;;;;4.55;1.02;;;;;;;;;;5100249;28;20063;-77
2022/07/06 11:37:48;;;;;;;7.35;0.88;;;;;;;;;;5100087;28;20046;-78
2022/07/06 11:40:14;;;;;;;8.93;1.17;;;;;;;;;;5100401;28;20702;-77
2022/07/06 11:42:40;;;;;;;6.65;1.50;;;;;;;;;;5101447;28;20473;-78
2022/07/06 11:45:06;;;;;;;10.45;1.20;;;;;;;;;;5103820;28;20050;-78
2022/07/06 11:47:34;;;;;;;9.55;1.55;;;;;;;;;;5098682;28;20032;-78
2022/07/06 11:50:00;;;;;;;12.77;1.05;;;;;;;;;;5100157;28;20035;-78
2022/07/06 11:52:26;;;;;;;4.25;1.02;;;;;;;;;;5097696;28;20038;-78
2022/07/06 11:54:57;;;;;;;4.53;0.82;;;;;;;;;;5099031;28;20027;-77
2022/07/06 11:57:23;;;;;;;2.67;0.60;;;;;;;;;;5099973;28;20205;-78
2022/07/06 11:59:51;;;;;;;5.03;0.93;;;;;;;;;;5102247;28;20062;-77
2022/07/06 12:02:17;;;;;;;14.50;1.20;;;;;;;;;;5094057;28;20447;-78
2022/07/06 12:04:44;;;;;;;5.45;1.00;;;;;;;;;;5098848;28;20887;-77
2022/07/06 12:07:12;;;;;;;5.47;0.82;;;;;;;;;;5097082;28;20040;-77
2022/07/06 12:09:38;;;;;;;8.45;0.98;;;;;;;;;;5099879;28;20046;-78
2022/07/06 12:12:05;;;;;;;2.50;0.63;;;;;;;;;;5099141;28;20040;-77
2022/07/06 12:14:32;;;;;;;7.00;0.60;;;;;;;;;;5099820;28;20028;-78
2022/07/06 12:17:03;;;;;;;3.28;0.80;;;;;;;;;;5099989;28;20035;-78
2022/07/06 12:19:29;;;;;;;6.10;0.80;;;;;;;;;;5106426;28;20044;-77
2022/07/06 12:21:56;;;;;;;4.47;1.10;;;;;;;;;;5102345;28;20474;-77
2022/07/06 12:24:23;;;;;;;2.63;0.60;;;;;;;;;;5098023;28;20834;-78
2022/07/06 12:26:50;;;;;;;4.38;0.82;;;;;;;;;;5100135;28;20043;-78
2022/07/06 12:29:17;;;;;;;2.30;0.60;;;;;;;;;;5094752;28;20036;-78
2022/07/06 12:31:44;;;;;;;2.30;0.60;;;;;;;;;;5097839;28;20039;-77
2022/07/06 12:34:18;;;;;;;3.80;0.70;;;;;;;;;;5096979;28;20046;-78
2022/07/06 12:36:48;;;;;;;4.40;0.60;;;;;;;;;;5100045;28;20060;-77
2022/07/06 12:39:15;;;;;;;1.77;0.55;;;;;;;;;;5095166;28;20573;-78
2022/07/06 12:41:46;;;;;;;3.15;0.63;;;;;;;;;;5100717;28;20035;-77
2022/07/06 12:44:12;;;;;;;3.83;0.50;;;;;;;;;;5095761;28;20047;-78
2022/07/06 12:46:39;;;;;;;13.75;0.88;;;;;;;;;;5098995;28;20053;-77
2022/07/06 12:49:13;;;;;;;4.03;0.60;;;;;;;;;;5100525;28;20057;-77
2022/07/06 12:51:49;;;;;;;1.38;0.40;;;;;;;;;;5097805;28;20040;-78
2022/07/06 12:54:15;;;;;;;2.67;0.77;;;;;;;;;;5102202;28;20038;-78
2022/07/06 12:57:05;;;;;;;3.65;0.50;;;;;;;;;;5099391;28;20022;-78
2022/07/06 12:59:32;;;;;;;1.88;0.45;;;;;;;;;;5099168;28;20023;-78
2022/07/06 13:01:58;;;;;;;2.90;0.60;;;;;;;;;;5096873;28;20059;-77
2022/07/06 13:04:25;;;;;;;4.57;1.00;;;;;;;;;;5100701;28;20377;-78
2022/07/06 13:06:51;;;;;;;1.90;0.50;;;;;;;;;;5102718;28;20032;-77
2022/07/06 13:09:18;;;;;;;3.22;0.57;;;;;;;;;;5099660;28;20035;-77
2022/07/06 13:11:44;;;;;;;6.03;0.68;;;;;;;;;;5101702;28;20041;-78
2022/07/06 13:14:10;;;;;;;1.73;0.50;;;;;;;;;;5102393;28;20076;-77
2022/07/06 13:16:36;;;;;;;3.03;0.70;;;;;;;;;;5102059;28;20705;-77
2022/07/06 13:19:03;;;;;;;5.93;0.90;;;;;;;;;;5101809;28;20099;-77
2022/07/06 13:21:29;;;;;;;4.57;0.98;;;;;;;;;;5101189;28;20043;-78
2022/07/06 13:23:55;;;;;;;2.08;0.50;;;;;;;;;;5100878;28;20035;-77
2022/07/06 13:26:21;;;;;;;5.95;0.65;;;;;;;;;;5097475;28;20036;-78
2022/07/06 13:28:47;;;;;;;2.50;0.95;;;;;;;;;;5099631;28;20036;-77
2022/07/06 13:31:13;;;;;;;3.90;0.95;;;;;;;;;;5098951;28;20035;-78
2022/07/06 13:33:39;;;;;;;4.82;0.65;;;;;;;;;;5101745;28;20090;-77
2022/07/06 13:36:06;;;;;;;5.88;0.70;;;;;;;;;;5097671;28;20115;-77
2022/07/06 13:38:32;;;;;;;4.93;0.50;;;;;;;;;;5102133;28;20073;-77
2022/07/06 13:40:58;;;;;;;2.40;0.60;;;;;;;;;;5095275;28;20387;-77
2022/07/06 13:43:24;;;;;;;3.08;1.27;;;;;;;;;;5094681;28;20052;-78
2022/07/06 13:45:50;;;;;;;2.90;0.60;;;;;;;;;;5100930;28;20055;-77
2022/07/06 13:48:16;;;;;;;4.70;0.73;;;;;;;;;;5101730;28;20478;-77
2022/07/06 13:50:42;;;;;;;4.82;1.67;;;;;;;;;;5095781;28;20031;-78
2022/07/06 13:53:08;;;;;;;1.27;0.40;;;;;;;;;;5103389;28;20036;-77
2022/07/06 13:55:34;;;;;;;1.08;0.32;;;;;;;;;;5103004;28;20028;-77
2022/07/06 13:58:00;;;;;;;3.25;0.77;;;;;;;;;;5100814;28;20031;-77
2022/07/06 14:00:26;;;;;;;2.03;0.50;;;;;;;;;;5094040;28;20028;-77
2022/07/06 14:02:52;;;;;;;5.68;0.60;;;;;;;;;;5097707;28;20036;-77
2022/07/06 14:05:18;;;;;;;2.58;0.40;;;;;;;;;;5103760;28;20772;-78
2022/07/06 14:07:45;;;;;;;4.60;0.70;;;;;;;;;;5097842;28;20503;-77
2022/07/06 14:10:11;;;;;;;2.60;0.75;;;;;;;;;;5103775;28;20024;-77
2022/07/06 14:12:37;;;;;;;3.15;0.70;;;;;;;;;;5096318;28;20039;-77
2022/07/06 14:15:03;;;;;;;4.22;0.77;;;;;;;;;;5100680;28;20028;-77
2022/07/06 14:17:29;;;;;;;2.97;0.70;;;;;;;;;;5098280;28;20156;-77
2022/07/06 14:19:55;;;;;;;5.88;1.20;;;;;;;;;;5092678;28;20044;-77
2022/07/06 14:22:21;;;;;;;2.38;0.70;;;;;;;;;;5095586;28;20036;-77
2022/07/06 14:24:47;;;;;;;2.95;0.52;;;;;;;;;;5096961;28;20024;-77
2022/07/06 14:27:13;;;;;;;8.25;0.60;;;;;;;;;;5099049;28;20031;-78
2022/07/06 14:29:39;;;;;;;2.40;0.60;;;;;;;;;;5088603;28;20111;-77
2022/07/06 14:32:05;;;;;;;3.67;0.80;;;;;;;;;;5099410;28;20088;-77
2022/07/06 14:34:31;;;;;;;3.42;1.00;;;;;;;;;;5091087;28;20378;-78
2022/07/06 14:36:57;;;;;;;6.32;1.08;;;;;;;;;;5093592;28;20039;-78
2022/07/06 14:39:23;;;;;;;4.05;0.50;;;;;;;;;;5098820;28;20027;-77
2022/07/06 14:41:49;;;;;;;4.20;0.60;;;;;;;;;;5097438;28;20051;-77
2022/07/06 14:44:15;;;;;;;4.88;1.05;;;;;;;;;;5100282;28;20056;-77
2022/07/06 14:46:41;;;;;;;3.03;0.50;;;;;;;;;;5098874;28;20042;-78